sensor_id;sensor_type;location;lat;lon;timestamp;temperature;humidity
6964;DHT22;3522;50.856;7.278;2024-01-15T00:01:31;0.80;99.90
6964;DHT22;3522;50.856;7.278;2024-01-15T00:03:58;0.80;99.90
6964;DHT22;3522;50.856;7.278;2024-01-15T00:06:25;0.80;99.90
6964;DHT22;3522;50.856;7.278;2024-01-15T00:08:55;0.80;99.90
6964;DHT22;3522;50.856;7.278;2024-01-15T00:11:23;0.80;99.90
6964;DHT22;3522;50.856;7.278;2024-01-15T00:13:49;0.80;99.90
6964;DHT22;3522;50.856;7.278;2024-01-15T00:16:17;0.80;99.90
6964;DHT22;3522;50.856;7.278;2024-01-15T00:18:43;0.80;99.90
6964;DHT22;3522;50.856;7.278;2024-01-15T00:21:10;0.80;99.90
6964;DHT22;3522;50.856;7.278;2024-01-15T00:23:39;0.90;99.90
6964;DHT22;3522;50.856;7.278;2024-01-15T00:26:09;0.80;99.90
6964;DHT22;3522;50.856;7.278;2024-01-15T00:28:36;0.80;99.90
6964;DHT22;3522;50.856;7.278;2024-01-15T00:31:03;0.80;99.90
6964;DHT22;3522;50.856;7.278;2024-01-15T00:33:29;0.80;99.90
6964;DHT22;3522;50.856;7.278;2024-01-15T00:35:56;0.80;99.90
6964;DHT22;3522;50.856;7.278;2024-01-15T00:38:22;0.80;99.90
6964;DHT22;3522;50.856;7.278;2024-01-15T00:40:49;0.80;99.90
6964;DHT22;3522;50.856;7.278;2024-01-15T00:43:17;0.80;99.90
6964;DHT22;3522;50.856;7.278;2024-01-15T00:45:44;0.80;99.90
6964;DHT22;3522;50.856;7.278;2024-01-15T00:48:11;0.70;99.90
6964;DHT22;3522;50.856;7.278;2024-01-15T00:50:38;0.80;99.90
6964;DHT22;3522;50.856;7.278;2024-01-15T00:53:04;0.70;99.90
6964;DHT22;3522;50.856;7.278;2024-01-15T00:55:31;0.70;99.90
6964;DHT22;3522;50.856;7.278;2024-01-15T00:57:57;0.70;99.90
6964;DHT22;3522;50.856;7.278;2024-01-15T01:00:25;0.70;99.90
6964;DHT22;3522;50.856;7.278;2024-01-15T01:02:52;0.70;99.90
6964;DHT22;3522;50.856;7.278;2024-01-15T01:05:18;0.70;99.90
6964;DHT22;3522;50.856;7.278;2024-01-15T01:07:45;0.70;99.90
6964;DHT22;3522;50.856;7.278;2024-01-15T01:10:11;0.70;99.90
6964;DHT22;3522;50.856;7.278;2024-01-15T01:12:38;0.70;99.90
6964;DHT22;3522;50.856;7.278;2024-01-15T01:15:05;0.70;99.90
6964;DHT22;3522;50.856;7.278;2024-01-15T01:17:33;0.70;99.90
6964;DHT22;3522;50.856;7.278;2024-01-15T01:19:59;0.70;99.90
6964;DHT22;3522;50.856;7.278;2024-01-15T01:22:29;0.70;99.90
6964;DHT22;3522;50.856;7.278;2024-01-15T01:24:56;0.70;99.90
6964;DHT22;3522;50.856;7.278;2024-01-15T01:27:22;0.70;99.90
6964;DHT22;3522;50.856;7.278;2024-01-15T01:29:49;0.70;99.90
6964;DHT22;3522;50.856;7.278;2024-01-15T01:32:15;0.70;99.90
6964;DHT22;3522;50.856;7.278;2024-01-15T01:34:43;0.70;99.90
6964;DHT22;3522;50.856;7.278;2024-01-15T01:37:10;0.70;99.90
6964;DHT22;3522;50.856;7.278;2024-01-15T01:39:38;0.70;99.90
6964;DHT22;3522;50.856;7.278;2024-01-15T01:42:04;0.70;99.90
6964;DHT22;3522;50.856;7.278;2024-01-15T01:44:31;0.70;99.90
6964;DHT22;3522;50.856;7.278;2024-01-15T01:46:58;0.70;99.90
6964;DHT22;3522;50.856;7.278;2024-01-15T01:49:25;0.70;99.90
6964;DHT22;3522;50.856;7.278;2024-01-15T01:51:53;0.70;99.90
6964;DHT22;3522;50.856;7.278;2024-01-15T01:54:19;0.70;99.90
6964;DHT22;3522;50.856;7.278;2024-01-15T01:56:47;0.70;99.90
6964;DHT22;3522;50.856;7.278;2024-01-15T01:59:13;0.70;99.90
6964;DHT22;3522;50.856;7.278;2024-01-15T02:01:40;0.70;99.90
6964;DHT22;3522;50.856;7.278;2024-01-15T02:04:07;0.70;99.90
6964;DHT22;3522;50.856;7.278;2024-01-15T02:06:34;0.60;99.90
6964;DHT22;3522;50.856;7.278;2024-01-15T02:09:02;0.70;99.90
6964;DHT22;3522;50.856;7.278;2024-01-15T02:11:30;0.60;99.90
6964;DHT22;3522;50.856;7.278;2024-01-15T02:13:57;0.60;99.90
6964;DHT22;3522;50.856;7.278;2024-01-15T02:16:23;0.60;99.90
6964;DHT22;3522;50.856;7.278;2024-01-15T02:18:50;0.70;99.90
6964;DHT22;3522;50.856;7.278;2024-01-15T02:21:17;0.60;99.90
6964;DHT22;3522;50.856;7.278;2024-01-15T02:23:44;0.60;99.90
6964;DHT22;3522;50.856;7.278;2024-01-15T02:26:11;0.60;99.90
6964;DHT22;3522;50.856;7.278;2024-01-15T02:28:39;0.60;99.90
6964;DHT22;3522;50.856;7.278;2024-01-15T02:31:06;0.60;99.90
6964;DHT22;3522;50.856;7.278;2024-01-15T02:33:33;0.70;99.90
6964;DHT22;3522;50.856;7.278;2024-01-15T02:35:59;0.60;99.90
6964;DHT22;3522;50.856;7.278;2024-01-15T02:38:26;0.70;99.90
6964;DHT22;3522;50.856;7.278;2024-01-15T02:40:54;0.70;99.90
6964;DHT22;3522;50.856;7.278;2024-01-15T02:43:20;0.70;99.90
6964;DHT22;3522;50.856;7.278;2024-01-15T02:45:47;0.70;99.90
6964;DHT22;3522;50.856;7.278;2024-01-15T02:48:13;0.70;99.90
6964;DHT22;3522;50.856;7.278;2024-01-15T02:50:40;0.70;99.90
6964;DHT22;3522;50.856;7.278;2024-01-15T02:53:06;0.70;99.90
6964;DHT22;3522;50.856;7.278;2024-01-15T02:55:33;0.70;99.90
6964;DHT22;3522;50.856;7.278;2024-01-15T02:58:03;0.70;99.90
6964;DHT22;3522;50.856;7.278;2024-01-15T03:00:30;0.70;99.90
6964;DHT22;3522;50.856;7.278;2024-01-15T03:02:57;0.70;99.90
6964;DHT22;3522;50.856;7.278;2024-01-15T03:05:23;0.70;99.90
6964;DHT22;3522;50.856;7.278;2024-01-15T03:07:50;0.80;99.90
6964;DHT22;3522;50.856;7.278;2024-01-15T03:10:16;0.80;99.90
6964;DHT22;3522;50.856;7.278;2024-01-15T03:12:43;0.80;99.90
6964;DHT22;3522;50.856;7.278;2024-01-15T03:15:11;0.80;99.90
6964;DHT22;3522;50.856;7.278;2024-01-15T03:17:38;0.80;99.90
6964;DHT22;3522;50.856;7.278;2024-01-15T03:20:05;0.80;99.90
6964;DHT22;3522;50.856;7.278;2024-01-15T03:22:31;0.80;99.90
6964;DHT22;3522;50.856;7.278;2024-01-15T03:24:58;0.80;99.90
6964;DHT22;3522;50.856;7.278;2024-01-15T03:27:24;0.80;99.90
6964;DHT22;3522;50.856;7.278;2024-01-15T03:29:51;0.80;99.90
6964;DHT22;3522;50.856;7.278;2024-01-15T03:32:19;0.80;99.90
6964;DHT22;3522;50.856;7.278;2024-01-15T03:34:46;0.80;99.90
6964;DHT22;3522;50.856;7.278;2024-01-15T03:37:12;0.80;99.90
6964;DHT22;3522;50.856;7.278;2024-01-15T03:39:39;0.80;99.90
6964;DHT22;3522;50.856;7.278;2024-01-15T03:42:06;0.80;99.90
6964;DHT22;3522;50.856;7.278;2024-01-15T03:44:32;0.80;99.90
6964;DHT22;3522;50.856;7.278;2024-01-15T03:46:59;0.80;99.90
6964;DHT22;3522;50.856;7.278;2024-01-15T03:49:27;0.80;99.90
6964;DHT22;3522;50.856;7.278;2024-01-15T03:51:54;0.80;99.90
6964;DHT22;3522;50.856;7.278;2024-01-15T03:54:20;0.80;99.90
6964;DHT22;3522;50.856;7.278;2024-01-15T03:56:47;0.80;99.90
6964;DHT22;3522;50.856;7.278;2024-01-15T03:59:13;0.80;99.90
6964;DHT22;3522;50.856;7.278;2024-01-15T04:01:40;0.80;99.90
6964;DHT22;3522;50.856;7.278;2024-01-15T04:04:06;0.80;99.90
6964;DHT22;3522;50.856;7.278;2024-01-15T04:06:34;0.80;99.90
6964;DHT22;3522;50.856;7.278;2024-01-15T04:09:01;0.80;99.90
6964;DHT22;3522;50.856;7.278;2024-01-15T04:11:28;0.80;99.90
6964;DHT22;3522;50.856;7.278;2024-01-15T04:13:54;0.80;99.90
6964;DHT22;3522;50.856;7.278;2024-01-15T04:16:21;0.80;99.90
6964;DHT22;3522;50.856;7.278;2024-01-15T04:18:47;0.80;99.90
6964;DHT22;3522;50.856;7.278;2024-01-15T04:21:14;0.80;99.90
6964;DHT22;3522;50.856;7.278;2024-01-15T04:23:42;0.80;99.90
6964;DHT22;3522;50.856;7.278;2024-01-15T04:26:08;0.80;99.90
6964;DHT22;3522;50.856;7.278;2024-01-15T04:28:35;0.80;99.90
6964;DHT22;3522;50.856;7.278;2024-01-15T04:31:01;0.80;99.90
6964;DHT22;3522;50.856;7.278;2024-01-15T04:33:28;0.80;99.90
6964;DHT22;3522;50.856;7.278;2024-01-15T04:35:54;0.80;99.90
6964;DHT22;3522;50.856;7.278;2024-01-15T04:38:21;0.80;99.90
6964;DHT22;3522;50.856;7.278;2024-01-15T04:40:49;0.80;99.90
6964;DHT22;3522;50.856;7.278;2024-01-15T04:43:15;0.80;99.90
6964;DHT22;3522;50.856;7.278;2024-01-15T04:45:42;0.80;99.90
6964;DHT22;3522;50.856;7.278;2024-01-15T04:48:08;0.80;99.90
6964;DHT22;3522;50.856;7.278;2024-01-15T04:50:35;0.80;99.90
6964;DHT22;3522;50.856;7.278;2024-01-15T04:53:02;0.80;99.90
6964;DHT22;3522;50.856;7.278;2024-01-15T04:55:28;0.90;99.90
6964;DHT22;3522;50.856;7.278;2024-01-15T04:57:56;0.90;99.90
6964;DHT22;3522;50.856;7.278;2024-01-15T05:00:22;0.80;99.90
6964;DHT22;3522;50.856;7.278;2024-01-15T05:02:49;0.80;99.90
6964;DHT22;3522;50.856;7.278;2024-01-15T05:05:16;0.80;99.90
6964;DHT22;3522;50.856;7.278;2024-01-15T05:07:42;0.80;99.90
6964;DHT22;3522;50.856;7.278;2024-01-15T05:10:09;0.80;99.90
6964;DHT22;3522;50.856;7.278;2024-01-15T05:12:35;0.80;99.90
6964;DHT22;3522;50.856;7.278;2024-01-15T05:15:04;0.80;99.90
6964;DHT22;3522;50.856;7.278;2024-01-15T05:17:30;0.80;99.90
6964;DHT22;3522;50.856;7.278;2024-01-15T05:19:57;0.90;99.90
6964;DHT22;3522;50.856;7.278;2024-01-15T05:22:23;0.90;99.90
6964;DHT22;3522;50.856;7.278;2024-01-15T05:24:50;0.80;99.90
6964;DHT22;3522;50.856;7.278;2024-01-15T05:27:17;0.90;99.90
6964;DHT22;3522;50.856;7.278;2024-01-15T05:29:44;0.90;99.90
6964;DHT22;3522;50.856;7.278;2024-01-15T05:32:12;0.90;99.90
6964;DHT22;3522;50.856;7.278;2024-01-15T05:34:38;0.90;99.90
6964;DHT22;3522;50.856;7.278;2024-01-15T05:37:05;0.90;99.90
6964;DHT22;3522;50.856;7.278;2024-01-15T05:39:31;0.90;99.90
6964;DHT22;3522;50.856;7.278;2024-01-15T05:41:58;0.90;99.90
6964;DHT22;3522;50.856;7.278;2024-01-15T05:44:24;0.90;99.90
6964;DHT22;3522;50.856;7.278;2024-01-15T05:46:51;0.90;99.90
6964;DHT22;3522;50.856;7.278;2024-01-15T05:49:19;0.90;99.90
6964;DHT22;3522;50.856;7.278;2024-01-15T05:51:45;0.90;99.90
6964;DHT22;3522;50.856;7.278;2024-01-15T05:54:12;0.90;99.90
6964;DHT22;3522;50.856;7.278;2024-01-15T05:56:38;0.90;99.90
6964;DHT22;3522;50.856;7.278;2024-01-15T05:59:05;1.00;99.90
6964;DHT22;3522;50.856;7.278;2024-01-15T06:01:32;1.00;99.90
6964;DHT22;3522;50.856;7.278;2024-01-15T06:03:58;1.00;99.90
6964;DHT22;3522;50.856;7.278;2024-01-15T06:06:26;1.00;99.90
6964;DHT22;3522;50.856;7.278;2024-01-15T06:08:52;1.00;99.90
6964;DHT22;3522;50.856;7.278;2024-01-15T06:11:19;1.00;99.90
6964;DHT22;3522;50.856;7.278;2024-01-15T06:13:46;1.00;99.90
6964;DHT22;3522;50.856;7.278;2024-01-15T06:16:13;1.00;99.90
6964;DHT22;3522;50.856;7.278;2024-01-15T06:18:40;1.00;99.90
6964;DHT22;3522;50.856;7.278;2024-01-15T06:21:06;1.00;99.90
6964;DHT22;3522;50.856;7.278;2024-01-15T06:23:37;1.00;99.90
6964;DHT22;3522;50.856;7.278;2024-01-15T06:26:04;1.00;99.90
6964;DHT22;3522;50.856;7.278;2024-01-15T06:28:30;1.00;99.90
6964;DHT22;3522;50.856;7.278;2024-01-15T06:30:57;1.00;99.90
6964;DHT22;3522;50.856;7.278;2024-01-15T06:33:23;1.00;99.90
6964;DHT22;3522;50.856;7.278;2024-01-15T06:35:50;1.00;99.90
6964;DHT22;3522;50.856;7.278;2024-01-15T06:38:16;1.00;99.90
6964;DHT22;3522;50.856;7.278;2024-01-15T06:40:44;1.00;99.90
6964;DHT22;3522;50.856;7.278;2024-01-15T06:43:13;1.00;99.90
6964;DHT22;3522;50.856;7.278;2024-01-15T06:45:40;1.10;99.90
6964;DHT22;3522;50.856;7.278;2024-01-15T06:48:06;1.00;99.90
6964;DHT22;3522;50.856;7.278;2024-01-15T06:50:33;1.00;99.90
6964;DHT22;3522;50.856;7.278;2024-01-15T06:53:00;1.10;99.90
6964;DHT22;3522;50.856;7.278;2024-01-15T06:55:26;1.10;99.90
6964;DHT22;3522;50.856;7.278;2024-01-15T06:57:55;1.10;99.90
6964;DHT22;3522;50.856;7.278;2024-01-15T07:00:21;1.10;99.90
6964;DHT22;3522;50.856;7.278;2024-01-15T07:02:48;1.10;99.90
6964;DHT22;3522;50.856;7.278;2024-01-15T07:05:14;1.10;99.90
6964;DHT22;3522;50.856;7.278;2024-01-15T07:07:41;1.10;99.90
6964;DHT22;3522;50.856;7.278;2024-01-15T07:10:08;1.10;99.90
6964;DHT22;3522;50.856;7.278;2024-01-15T07:12:34;1.10;99.90
6964;DHT22;3522;50.856;7.278;2024-01-15T07:15:02;1.10;99.90
6964;DHT22;3522;50.856;7.278;2024-01-15T07:17:29;1.10;99.90
6964;DHT22;3522;50.856;7.278;2024-01-15T07:19:56;1.10;99.90
6964;DHT22;3522;50.856;7.278;2024-01-15T07:22:22;1.10;99.90
6964;DHT22;3522;50.856;7.278;2024-01-15T07:24:49;1.10;99.90
6964;DHT22;3522;50.856;7.278;2024-01-15T07:27:15;1.10;99.90
6964;DHT22;3522;50.856;7.278;2024-01-15T07:29:42;1.10;99.90
6964;DHT22;3522;50.856;7.278;2024-01-15T07:32:10;1.00;99.90
6964;DHT22;3522;50.856;7.278;2024-01-15T07:34:37;1.00;99.90
6964;DHT22;3522;50.856;7.278;2024-01-15T07:37:03;1.00;99.90
6964;DHT22;3522;50.856;7.278;2024-01-15T07:39:30;1.00;99.90
6964;DHT22;3522;50.856;7.278;2024-01-15T07:41:56;1.00;99.90
6964;DHT22;3522;50.856;7.278;2024-01-15T07:44:23;1.10;99.90
6964;DHT22;3522;50.856;7.278;2024-01-15T07:46:49;1.00;99.90
6964;DHT22;3522;50.856;7.278;2024-01-15T07:49:17;1.10;99.90
6964;DHT22;3522;50.856;7.278;2024-01-15T07:51:44;1.00;99.90
6964;DHT22;3522;50.856;7.278;2024-01-15T07:54:10;1.00;99.90
6964;DHT22;3522;50.856;7.278;2024-01-15T07:56:52;1.10;99.90
6964;DHT22;3522;50.856;7.278;2024-01-15T07:59:19;1.00;99.90
6964;DHT22;3522;50.856;7.278;2024-01-15T08:01:45;1.10;99.90
6964;DHT22;3522;50.856;7.278;2024-01-15T08:04:12;1.10;99.90
6964;DHT22;3522;50.856;7.278;2024-01-15T08:06:40;1.00;99.90
6964;DHT22;3522;50.856;7.278;2024-01-15T08:09:07;1.10;99.90
6964;DHT22;3522;50.856;7.278;2024-01-15T08:11:33;1.00;99.90
6964;DHT22;3522;50.856;7.278;2024-01-15T08:14:00;1.00;99.90
6964;DHT22;3522;50.856;7.278;2024-01-15T08:16:27;1.10;99.90
6964;DHT22;3522;50.856;7.278;2024-01-15T08:18:53;1.10;99.90
6964;DHT22;3522;50.856;7.278;2024-01-15T08:21:20;1.10;99.90
6964;DHT22;3522;50.856;7.278;2024-01-15T08:23:48;1.10;99.90
6964;DHT22;3522;50.856;7.278;2024-01-15T08:26:14;1.10;99.90
6964;DHT22;3522;50.856;7.278;2024-01-15T08:28:41;1.10;99.90
6964;DHT22;3522;50.856;7.278;2024-01-15T08:31:07;1.10;99.90
6964;DHT22;3522;50.856;7.278;2024-01-15T08:33:34;1.10;99.90
6964;DHT22;3522;50.856;7.278;2024-01-15T08:36:01;1.10;99.90
6964;DHT22;3522;50.856;7.278;2024-01-15T08:38:27;1.10;99.90
6964;DHT22;3522;50.856;7.278;2024-01-15T08:40:55;1.10;99.90
6964;DHT22;3522;50.856;7.278;2024-01-15T08:43:24;1.20;99.90
6964;DHT22;3522;50.856;7.278;2024-01-15T08:45:50;1.10;99.90
6964;DHT22;3522;50.856;7.278;2024-01-15T08:48:17;1.20;99.90
6964;DHT22;3522;50.856;7.278;2024-01-15T08:50:43;1.20;99.90
6964;DHT22;3522;50.856;7.278;2024-01-15T08:53:11;1.10;99.90
6964;DHT22;3522;50.856;7.278;2024-01-15T08:55:37;1.10;99.90
6964;DHT22;3522;50.856;7.278;2024-01-15T08:58:05;1.20;99.90
6964;DHT22;3522;50.856;7.278;2024-01-15T09:00:32;1.20;99.90
6964;DHT22;3522;50.856;7.278;2024-01-15T09:03:01;1.20;99.90
6964;DHT22;3522;50.856;7.278;2024-01-15T09:05:28;1.20;99.90
6964;DHT22;3522;50.856;7.278;2024-01-15T09:07:55;1.20;99.90
6964;DHT22;3522;50.856;7.278;2024-01-15T09:10:22;1.20;99.90
6964;DHT22;3522;50.856;7.278;2024-01-15T09:12:49;1.20;99.90
6964;DHT22;3522;50.856;7.278;2024-01-15T09:15:17;1.20;99.90
6964;DHT22;3522;50.856;7.278;2024-01-15T09:17:44;1.20;99.90
6964;DHT22;3522;50.856;7.278;2024-01-15T09:20:11;1.30;99.90
6964;DHT22;3522;50.856;7.278;2024-01-15T09:22:38;1.20;99.90
6964;DHT22;3522;50.856;7.278;2024-01-15T09:25:06;1.30;99.90
6964;DHT22;3522;50.856;7.278;2024-01-15T09:27:33;1.20;99.90
6964;DHT22;3522;50.856;7.278;2024-01-15T09:30:00;1.20;99.90
6964;DHT22;3522;50.856;7.278;2024-01-15T09:32:28;1.20;99.90
6964;DHT22;3522;50.856;7.278;2024-01-15T09:34:55;1.30;99.90
6964;DHT22;3522;50.856;7.278;2024-01-15T09:37:21;1.20;99.90
6964;DHT22;3522;50.856;7.278;2024-01-15T09:39:48;1.30;99.90
6964;DHT22;3522;50.856;7.278;2024-01-15T09:42:15;1.30;99.90
6964;DHT22;3522;50.856;7.278;2024-01-15T09:44:42;1.30;99.90
6964;DHT22;3522;50.856;7.278;2024-01-15T09:47:09;1.20;99.90
6964;DHT22;3522;50.856;7.278;2024-01-15T09:49:37;1.20;99.90
6964;DHT22;3522;50.856;7.278;2024-01-15T09:52:06;1.20;99.90
6964;DHT22;3522;50.856;7.278;2024-01-15T09:54:33;1.20;99.90
6964;DHT22;3522;50.856;7.278;2024-01-15T09:57:00;1.20;99.90
6964;DHT22;3522;50.856;7.278;2024-01-15T09:59:26;1.20;99.90
6964;DHT22;3522;50.856;7.278;2024-01-15T10:01:54;1.20;99.90
6964;DHT22;3522;50.856;7.278;2024-01-15T10:04:21;1.20;99.90
6964;DHT22;3522;50.856;7.278;2024-01-15T10:06:50;1.20;99.90
6964;DHT22;3522;50.856;7.278;2024-01-15T10:09:17;1.10;99.90
6964;DHT22;3522;50.856;7.278;2024-01-15T10:11:44;1.10;99.90
6964;DHT22;3522;50.856;7.278;2024-01-15T10:14:11;1.10;99.90
6964;DHT22;3522;50.856;7.278;2024-01-15T10:16:38;1.10;99.90
6964;DHT22;3522;50.856;7.278;2024-01-15T10:19:05;1.10;99.90
6964;DHT22;3522;50.856;7.278;2024-01-15T10:21:32;1.00;99.90
6964;DHT22;3522;50.856;7.278;2024-01-15T10:24:01;1.00;99.90
6964;DHT22;3522;50.856;7.278;2024-01-15T10:26:28;1.00;99.90
6964;DHT22;3522;50.856;7.278;2024-01-15T10:28:55;1.00;99.90
6964;DHT22;3522;50.856;7.278;2024-01-15T10:31:21;1.00;99.90
6964;DHT22;3522;50.856;7.278;2024-01-15T10:33:48;1.00;99.90
6964;DHT22;3522;50.856;7.278;2024-01-15T10:36:15;0.90;99.90
6964;DHT22;3522;50.856;7.278;2024-01-15T10:38:42;0.90;99.90
6964;DHT22;3522;50.856;7.278;2024-01-15T10:41:10;0.90;99.90
6964;DHT22;3522;50.856;7.278;2024-01-15T10:43:37;0.90;99.90
6964;DHT22;3522;50.856;7.278;2024-01-15T10:46:03;0.90;99.90
6964;DHT22;3522;50.856;7.278;2024-01-15T10:48:30;0.90;99.90
6964;DHT22;3522;50.856;7.278;2024-01-15T10:50:57;0.90;99.90
6964;DHT22;3522;50.856;7.278;2024-01-15T10:53:24;0.90;99.90
6964;DHT22;3522;50.856;7.278;2024-01-15T10:55:51;0.90;99.90
6964;DHT22;3522;50.856;7.278;2024-01-15T10:58:19;0.90;99.90
6964;DHT22;3522;50.856;7.278;2024-01-15T11:00:47;0.90;99.90
6964;DHT22;3522;50.856;7.278;2024-01-15T11:03:14;0.90;99.90
6964;DHT22;3522;50.856;7.278;2024-01-15T11:05:42;0.90;99.90
6964;DHT22;3522;50.856;7.278;2024-01-15T11:08:09;0.90;99.90
6964;DHT22;3522;50.856;7.278;2024-01-15T11:10:39;0.90;99.90
6964;DHT22;3522;50.856;7.278;2024-01-15T11:13:08;0.90;99.90
6964;DHT22;3522;50.856;7.278;2024-01-15T11:15:48;0.90;99.90
6964;DHT22;3522;50.856;7.278;2024-01-15T11:18:20;0.80;99.90
6964;DHT22;3522;50.856;7.278;2024-01-15T11:23:41;0.90;99.90
6964;DHT22;3522;50.856;7.278;2024-01-15T11:26:15;0.90;99.90
6964;DHT22;3522;50.856;7.278;2024-01-15T11:28:53;0.90;99.90
6964;DHT22;3522;50.856;7.278;2024-01-15T11:31:25;0.90;99.90
6964;DHT22;3522;50.856;7.278;2024-01-15T11:33:52;0.90;99.90
6964;DHT22;3522;50.856;7.278;2024-01-15T11:36:18;0.80;99.90
6964;DHT22;3522;50.856;7.278;2024-01-15T11:38:45;0.90;99.90
6964;DHT22;3522;50.856;7.278;2024-01-15T11:41:13;0.90;99.90
6964;DHT22;3522;50.856;7.278;2024-01-15T11:43:41;0.90;99.90
6964;DHT22;3522;50.856;7.278;2024-01-15T11:46:08;0.80;99.90
6964;DHT22;3522;50.856;7.278;2024-01-15T11:48:42;0.90;99.90
6964;DHT22;3522;50.856;7.278;2024-01-15T11:51:10;0.80;99.90
6964;DHT22;3522;50.856;7.278;2024-01-15T11:53:40;0.90;99.90
6964;DHT22;3522;50.856;7.278;2024-01-15T11:56:13;0.90;99.90
6964;DHT22;3522;50.856;7.278;2024-01-15T11:58:40;0.90;99.90
6964;DHT22;3522;50.856;7.278;2024-01-15T12:01:07;0.90;99.90
6964;DHT22;3522;50.856;7.278;2024-01-15T12:03:36;0.90;99.90
6964;DHT22;3522;50.856;7.278;2024-01-15T12:06:06;0.90;99.90
6964;DHT22;3522;50.856;7.278;2024-01-15T12:08:33;0.90;99.90
6964;DHT22;3522;50.856;7.278;2024-01-15T12:11:00;1.00;99.90
6964;DHT22;3522;50.856;7.278;2024-01-15T12:13:27;1.00;99.90
6964;DHT22;3522;50.856;7.278;2024-01-15T12:15:54;0.90;99.90
6964;DHT22;3522;50.856;7.278;2024-01-15T12:18:20;0.90;99.90
6964;DHT22;3522;50.856;7.278;2024-01-15T12:20:47;1.00;99.90
6964;DHT22;3522;50.856;7.278;2024-01-15T12:23:15;1.00;99.90
6964;DHT22;3522;50.856;7.278;2024-01-15T12:25:41;1.00;99.90
6964;DHT22;3522;50.856;7.278;2024-01-15T12:28:08;1.00;99.90
6964;DHT22;3522;50.856;7.278;2024-01-15T12:30:35;1.00;99.90
6964;DHT22;3522;50.856;7.278;2024-01-15T12:33:03;1.00;99.90
6964;DHT22;3522;50.856;7.278;2024-01-15T12:35:30;1.00;99.90
6964;DHT22;3522;50.856;7.278;2024-01-15T12:37:56;1.00;99.90
6964;DHT22;3522;50.856;7.278;2024-01-15T12:40:24;1.00;99.90
6964;DHT22;3522;50.856;7.278;2024-01-15T12:42:51;1.00;99.90
6964;DHT22;3522;50.856;7.278;2024-01-15T12:45:17;1.00;99.90
6964;DHT22;3522;50.856;7.278;2024-01-15T12:47:44;1.00;99.90
6964;DHT22;3522;50.856;7.278;2024-01-15T12:50:12;1.10;99.90
6964;DHT22;3522;50.856;7.278;2024-01-15T12:52:39;1.10;99.90
6964;DHT22;3522;50.856;7.278;2024-01-15T12:55:07;1.10;99.90
6964;DHT22;3522;50.856;7.278;2024-01-15T12:57:35;1.10;99.90
6964;DHT22;3522;50.856;7.278;2024-01-15T13:00:02;1.10;99.90
6964;DHT22;3522;50.856;7.278;2024-01-15T13:02:31;1.10;99.90
6964;DHT22;3522;50.856;7.278;2024-01-15T13:04:58;1.10;99.90
6964;DHT22;3522;50.856;7.278;2024-01-15T13:07:24;1.20;99.90
6964;DHT22;3522;50.856;7.278;2024-01-15T13:09:51;1.20;99.90
6964;DHT22;3522;50.856;7.278;2024-01-15T13:12:19;1.20;99.90
6964;DHT22;3522;50.856;7.278;2024-01-15T13:14:46;1.20;99.90
6964;DHT22;3522;50.856;7.278;2024-01-15T13:17:13;1.20;99.90
6964;DHT22;3522;50.856;7.278;2024-01-15T13:19:40;1.20;99.90
6964;DHT22;3522;50.856;7.278;2024-01-15T13:22:07;1.20;99.90
6964;DHT22;3522;50.856;7.278;2024-01-15T13:24:34;1.30;99.90
6964;DHT22;3522;50.856;7.278;2024-01-15T13:27:01;1.30;99.90
6964;DHT22;3522;50.856;7.278;2024-01-15T13:29:28;1.30;99.90
6964;DHT22;3522;50.856;7.278;2024-01-15T13:31:56;1.30;99.90
6964;DHT22;3522;50.856;7.278;2024-01-15T13:34:22;1.30;99.90
6964;DHT22;3522;50.856;7.278;2024-01-15T13:36:49;1.40;99.90
6964;DHT22;3522;50.856;7.278;2024-01-15T13:39:16;1.30;99.90
6964;DHT22;3522;50.856;7.278;2024-01-15T13:41:45;1.30;99.90
6964;DHT22;3522;50.856;7.278;2024-01-15T13:44:12;1.30;99.90
6964;DHT22;3522;50.856;7.278;2024-01-15T13:46:38;1.30;99.90
6964;DHT22;3522;50.856;7.278;2024-01-15T13:49:06;1.40;99.90
6964;DHT22;3522;50.856;7.278;2024-01-15T13:51:34;1.40;99.90
6964;DHT22;3522;50.856;7.278;2024-01-15T13:54:01;1.30;99.90
6964;DHT22;3522;50.856;7.278;2024-01-15T13:56:29;1.30;99.90
6964;DHT22;3522;50.856;7.278;2024-01-15T13:58:57;1.30;99.90
6964;DHT22;3522;50.856;7.278;2024-01-15T14:01:24;1.30;99.90
6964;DHT22;3522;50.856;7.278;2024-01-15T14:03:51;1.30;99.90
6964;DHT22;3522;50.856;7.278;2024-01-15T14:06:19;1.30;99.90
6964;DHT22;3522;50.856;7.278;2024-01-15T14:08:45;1.30;99.90
6964;DHT22;3522;50.856;7.278;2024-01-15T14:11:12;1.30;99.90
6964;DHT22;3522;50.856;7.278;2024-01-15T14:13:38;1.30;99.90
6964;DHT22;3522;50.856;7.278;2024-01-15T14:16:05;1.30;99.90
6964;DHT22;3522;50.856;7.278;2024-01-15T14:18:31;1.30;99.90
6964;DHT22;3522;50.856;7.278;2024-01-15T14:20:58;1.20;99.90
6964;DHT22;3522;50.856;7.278;2024-01-15T14:23:26;1.20;99.90
6964;DHT22;3522;50.856;7.278;2024-01-15T14:25:52;1.20;99.90
6964;DHT22;3522;50.856;7.278;2024-01-15T14:28:19;1.30;99.90
6964;DHT22;3522;50.856;7.278;2024-01-15T14:30:45;1.20;99.90
6964;DHT22;3522;50.856;7.278;2024-01-15T14:33:12;1.20;99.90
6964;DHT22;3522;50.856;7.278;2024-01-15T14:35:39;1.20;99.90
6964;DHT22;3522;50.856;7.278;2024-01-15T14:38:05;1.20;99.90
6964;DHT22;3522;50.856;7.278;2024-01-15T14:40:34;1.10;99.90
6964;DHT22;3522;50.856;7.278;2024-01-15T14:43:02;1.10;99.90
6964;DHT22;3522;50.856;7.278;2024-01-15T14:45:29;1.10;99.90
6964;DHT22;3522;50.856;7.278;2024-01-15T14:47:56;1.10;99.90
6964;DHT22;3522;50.856;7.278;2024-01-15T14:50:23;1.10;99.90
6964;DHT22;3522;50.856;7.278;2024-01-15T14:52:50;1.00;99.90
6964;DHT22;3522;50.856;7.278;2024-01-15T14:55:18;1.10;99.90
6964;DHT22;3522;50.856;7.278;2024-01-15T14:57:48;1.10;99.90
6964;DHT22;3522;50.856;7.278;2024-01-15T15:00:15;1.10;99.90
6964;DHT22;3522;50.856;7.278;2024-01-15T15:02:42;1.10;99.90
6964;DHT22;3522;50.856;7.278;2024-01-15T15:05:09;1.10;99.90
6964;DHT22;3522;50.856;7.278;2024-01-15T15:07:35;1.10;99.90
6964;DHT22;3522;50.856;7.278;2024-01-15T15:10:02;1.10;99.90
6964;DHT22;3522;50.856;7.278;2024-01-15T15:12:29;1.20;99.90
6964;DHT22;3522;50.856;7.278;2024-01-15T15:14:57;1.10;99.90
6964;DHT22;3522;50.856;7.278;2024-01-15T15:17:24;1.10;99.90
6964;DHT22;3522;50.856;7.278;2024-01-15T15:19:50;1.10;99.90
6964;DHT22;3522;50.856;7.278;2024-01-15T15:22:19;1.20;99.90
6964;DHT22;3522;50.856;7.278;2024-01-15T15:24:46;1.10;99.90
6964;DHT22;3522;50.856;7.278;2024-01-15T15:27:13;1.10;99.90
6964;DHT22;3522;50.856;7.278;2024-01-15T15:29:39;1.00;99.90
6964;DHT22;3522;50.856;7.278;2024-01-15T15:32:07;1.10;99.90
6964;DHT22;3522;50.856;7.278;2024-01-15T15:34:34;1.00;99.90
6964;DHT22;3522;50.856;7.278;2024-01-15T15:37:00;1.00;99.90
6964;DHT22;3522;50.856;7.278;2024-01-15T15:39:27;1.00;99.90
6964;DHT22;3522;50.856;7.278;2024-01-15T15:41:54;1.00;99.90
6964;DHT22;3522;50.856;7.278;2024-01-15T15:44:20;1.00;99.90
6964;DHT22;3522;50.856;7.278;2024-01-15T15:46:47;1.00;99.90
6964;DHT22;3522;50.856;7.278;2024-01-15T15:49:15;0.90;99.90
6964;DHT22;3522;50.856;7.278;2024-01-15T15:51:41;0.90;99.90
6964;DHT22;3522;50.856;7.278;2024-01-15T15:54:08;0.90;99.90
6964;DHT22;3522;50.856;7.278;2024-01-15T15:56:35;0.90;99.90
6964;DHT22;3522;50.856;7.278;2024-01-15T15:59:03;0.90;99.90
6964;DHT22;3522;50.856;7.278;2024-01-15T16:01:30;0.90;99.90
6964;DHT22;3522;50.856;7.278;2024-01-15T16:03:56;0.90;99.90
6964;DHT22;3522;50.856;7.278;2024-01-15T16:06:24;0.90;99.90
6964;DHT22;3522;50.856;7.278;2024-01-15T16:08:51;0.90;99.90
6964;DHT22;3522;50.856;7.278;2024-01-15T16:11:17;0.90;99.90
6964;DHT22;3522;50.856;7.278;2024-01-15T16:13:45;0.90;99.90
6964;DHT22;3522;50.856;7.278;2024-01-15T16:16:11;0.80;99.90
6964;DHT22;3522;50.856;7.278;2024-01-15T16:18:38;0.80;99.90